Terminal Aerodrome Forecast
Issued by NWS

Home | Current Version | Previous Version | Text Only | Print | Product List | Glossary On
Versions: 1 2 3 4 5 6 7 8 9 10 11 12 13 14 15 16 17 18 19 20 21 22 23
000
FTUS44 KMAF 010500
TAFHOB
TAF
KHOB 010528Z 0106/0206 23007KT 1/4SM FG OVC001
      TEMPO 0110/0114 2SM BR OVC003
     FM011500 36014KT 6SM BR BKN015
     FM012000 03010KT P6SM BKN040=

USA.gov is the U.S. government's official web portal to all federal, state and local government web resources and services.